sensor_id;sensor_type;location;lat;lon;timestamp;temperature;humidity
58519;DHT22;44310;48.106;12.008;2022-10-04T00:03:31;19.30;76.90
58519;DHT22;44310;48.106;12.008;2022-10-04T00:06:00;19.30;76.60
58519;DHT22;44310;48.106;12.008;2022-10-04T00:11:07;19.30;76.30
58519;DHT22;44310;48.106;12.008;2022-10-04T00:13:40;19.30;76.20
58519;DHT22;44310;48.106;12.008;2022-10-04T00:16:19;19.30;76.10
58519;DHT22;44310;48.106;12.008;2022-10-04T00:18:47;19.20;75.90
58519;DHT22;44310;48.106;12.008;2022-10-04T00:21:15;19.30;75.80
58519;DHT22;44310;48.106;12.008;2022-10-04T00:23:44;19.30;75.80
58519;DHT22;44310;48.106;12.008;2022-10-04T00:26:14;19.30;75.80
58519;DHT22;44310;48.106;12.008;2022-10-04T00:28:44;19.30;76.00
58519;DHT22;44310;48.106;12.008;2022-10-04T00:31:23;19.30;76.10
58519;DHT22;44310;48.106;12.008;2022-10-04T00:33:56;19.30;75.90
58519;DHT22;44310;48.106;12.008;2022-10-04T00:47:26;19.30;76.10
58519;DHT22;44310;48.106;12.008;2022-10-04T00:52:52;19.30;75.70
58519;DHT22;44310;48.106;12.008;2022-10-04T00:58:06;19.30;75.60
58519;DHT22;44310;48.106;12.008;2022-10-04T01:00:35;19.30;75.60
58519;DHT22;44310;48.106;12.008;2022-10-04T01:03:08;19.30;75.60
58519;DHT22;44310;48.106;12.008;2022-10-04T01:05:41;19.30;75.70
58519;DHT22;44310;48.106;12.008;2022-10-04T01:08:12;19.30;75.80
58519;DHT22;44310;48.106;12.008;2022-10-04T01:13:25;19.30;75.70
58519;DHT22;44310;48.106;12.008;2022-10-04T01:16:04;19.30;75.80
58519;DHT22;44310;48.106;12.008;2022-10-04T01:18:36;19.30;75.70
58519;DHT22;44310;48.106;12.008;2022-10-04T01:31:34;19.30;76.50
58519;DHT22;44310;48.106;12.008;2022-10-04T01:34:03;19.30;75.80
58519;DHT22;44310;48.106;12.008;2022-10-04T01:36:32;19.30;75.70
58519;DHT22;44310;48.106;12.008;2022-10-04T01:39:00;19.30;75.70
58519;DHT22;44310;48.106;12.008;2022-10-04T01:44:27;19.30;75.60
58519;DHT22;44310;48.106;12.008;2022-10-04T01:47:03;19.30;75.60
58519;DHT22;44310;48.106;12.008;2022-10-04T01:49:33;19.30;75.50
58519;DHT22;44310;48.106;12.008;2022-10-04T01:52:14;19.30;75.40
58519;DHT22;44310;48.106;12.008;2022-10-04T01:54:44;19.30;75.40
58519;DHT22;44310;48.106;12.008;2022-10-04T01:57:17;19.30;75.30
58519;DHT22;44310;48.106;12.008;2022-10-04T02:00:04;19.30;75.10
58519;DHT22;44310;48.106;12.008;2022-10-04T02:03:25;19.30;75.20
58519;DHT22;44310;48.106;12.008;2022-10-04T02:05:34;19.30;75.10
58519;DHT22;44310;48.106;12.008;2022-10-04T02:08:06;19.20;75.40
58519;DHT22;44310;48.106;12.008;2022-10-04T02:10:35;19.30;75.10
58519;DHT22;44310;48.106;12.008;2022-10-04T02:13:12;18.00;74.40
58519;DHT22;44310;48.106;12.008;2022-10-04T02:15:41;19.20;75.00
58519;DHT22;44310;48.106;12.008;2022-10-04T02:18:11;19.20;75.10
58519;DHT22;44310;48.106;12.008;2022-10-04T02:20:40;19.30;75.10
58519;DHT22;44310;48.106;12.008;2022-10-04T02:23:09;19.20;75.10
58519;DHT22;44310;48.106;12.008;2022-10-04T02:25:37;19.30;75.30
58519;DHT22;44310;48.106;12.008;2022-10-04T02:28:10;19.30;75.20
58519;DHT22;44310;48.106;12.008;2022-10-04T02:30:42;19.30;75.10
58519;DHT22;44310;48.106;12.008;2022-10-04T02:33:10;19.20;74.90
58519;DHT22;44310;48.106;12.008;2022-10-04T02:35:45;19.20;74.90
58519;DHT22;44310;48.106;12.008;2022-10-04T02:38:24;19.20;74.90
58519;DHT22;44310;48.106;12.008;2022-10-04T02:41:02;19.20;74.80
58519;DHT22;44310;48.106;12.008;2022-10-04T02:46:29;19.20;74.50
58519;DHT22;44310;48.106;12.008;2022-10-04T02:49:27;19.20;74.40
58519;DHT22;44310;48.106;12.008;2022-10-04T02:51:53;19.20;74.10
58519;DHT22;44310;48.106;12.008;2022-10-04T02:57:02;19.10;73.90
58519;DHT22;44310;48.106;12.008;2022-10-04T02:59:30;19.10;73.80
58519;DHT22;44310;48.106;12.008;2022-10-04T03:02:02;19.10;73.70
58519;DHT22;44310;48.106;12.008;2022-10-04T03:04:36;19.10;73.70
58519;DHT22;44310;48.106;12.008;2022-10-04T03:07:06;19.10;73.60
58519;DHT22;44310;48.106;12.008;2022-10-04T03:09:35;19.10;73.60
58519;DHT22;44310;48.106;12.008;2022-10-04T03:12:04;19.10;73.90
58519;DHT22;44310;48.106;12.008;2022-10-04T03:14:32;19.20;74.10
58519;DHT22;44310;48.106;12.008;2022-10-04T03:17:01;19.20;74.00
58519;DHT22;44310;48.106;12.008;2022-10-04T03:19:31;19.20;73.80
58519;DHT22;44310;48.106;12.008;2022-10-04T03:22:09;19.20;73.50
58519;DHT22;44310;48.106;12.008;2022-10-04T03:24:46;19.20;73.40
58519;DHT22;44310;48.106;12.008;2022-10-04T03:27:33;19.20;73.40
58519;DHT22;44310;48.106;12.008;2022-10-04T03:30:02;19.50;74.10
58519;DHT22;44310;48.106;12.008;2022-10-04T03:32:29;19.20;73.10
58519;DHT22;44310;48.106;12.008;2022-10-04T03:35:01;19.20;73.10
58519;DHT22;44310;48.106;12.008;2022-10-04T03:37:30;19.20;73.00
58519;DHT22;44310;48.106;12.008;2022-10-04T03:40:01;19.20;73.00
58519;DHT22;44310;48.106;12.008;2022-10-04T03:42:32;19.20;73.40
58519;DHT22;44310;48.106;12.008;2022-10-04T03:45:03;19.20;73.40
58519;DHT22;44310;48.106;12.008;2022-10-04T03:47:35;19.20;73.30
58519;DHT22;44310;48.106;12.008;2022-10-04T03:50:27;19.20;73.20
58519;DHT22;44310;48.106;12.008;2022-10-04T03:53:47;19.20;73.00
58519;DHT22;44310;48.106;12.008;2022-10-04T03:55:47;19.20;73.00
58519;DHT22;44310;48.106;12.008;2022-10-04T03:58:15;19.20;73.10
58519;DHT22;44310;48.106;12.008;2022-10-04T04:01:13;19.10;73.10
58519;DHT22;44310;48.106;12.008;2022-10-04T04:03:56;19.20;72.90
58519;DHT22;44310;48.106;12.008;2022-10-04T04:06:51;19.10;72.90
58519;DHT22;44310;48.106;12.008;2022-10-04T04:09:37;19.20;73.00
58519;DHT22;44310;48.106;12.008;2022-10-04T04:12:12;19.10;72.90
58519;DHT22;44310;48.106;12.008;2022-10-04T04:14:41;19.20;73.00
58519;DHT22;44310;48.106;12.008;2022-10-04T04:17:36;19.50;73.80
58519;DHT22;44310;48.106;12.008;2022-10-04T04:20:20;19.20;72.90
58519;DHT22;44310;48.106;12.008;2022-10-04T04:23:01;19.20;72.80
58519;DHT22;44310;48.106;12.008;2022-10-04T04:25:32;19.10;72.70
58519;DHT22;44310;48.106;12.008;2022-10-04T04:28:22;19.10;72.70
58519;DHT22;44310;48.106;12.008;2022-10-04T04:31:03;19.10;72.60
58519;DHT22;44310;48.106;12.008;2022-10-04T04:33:44;19.10;72.60
58519;DHT22;44310;48.106;12.008;2022-10-04T04:36:15;19.10;72.40
58519;DHT22;44310;48.106;12.008;2022-10-04T04:38:43;19.10;72.40
58519;DHT22;44310;48.106;12.008;2022-10-04T04:41:31;19.10;72.20
58519;DHT22;44310;48.106;12.008;2022-10-04T04:44:02;19.10;72.20
58519;DHT22;44310;48.106;12.008;2022-10-04T04:46:30;19.10;72.00
58519;DHT22;44310;48.106;12.008;2022-10-04T04:49:01;19.10;72.00
58519;DHT22;44310;48.106;12.008;2022-10-04T04:51:30;19.00;71.80
58519;DHT22;44310;48.106;12.008;2022-10-04T04:54:01;19.10;71.70
58519;DHT22;44310;48.106;12.008;2022-10-04T04:56:29;19.10;71.60
58519;DHT22;44310;48.106;12.008;2022-10-04T04:58:59;19.10;71.60
58519;DHT22;44310;48.106;12.008;2022-10-04T05:01:46;19.10;71.50
58519;DHT22;44310;48.106;12.008;2022-10-04T05:04:17;19.10;71.40
58519;DHT22;44310;48.106;12.008;2022-10-04T05:07:03;19.10;71.30
58519;DHT22;44310;48.106;12.008;2022-10-04T05:09:37;19.10;71.40
58519;DHT22;44310;48.106;12.008;2022-10-04T05:12:13;19.00;71.60
58519;DHT22;44310;48.106;12.008;2022-10-04T05:14:47;19.10;71.70
58519;DHT22;44310;48.106;12.008;2022-10-04T05:17:24;19.10;71.60
58519;DHT22;44310;48.106;12.008;2022-10-04T05:19:56;19.10;71.40
58519;DHT22;44310;48.106;12.008;2022-10-04T05:22:24;19.10;71.50
58519;DHT22;44310;48.106;12.008;2022-10-04T05:24:59;19.10;71.50
58519;DHT22;44310;48.106;12.008;2022-10-04T05:27:39;19.10;71.60
58519;DHT22;44310;48.106;12.008;2022-10-04T05:30:29;19.10;71.80
58519;DHT22;44310;48.106;12.008;2022-10-04T05:33:06;19.10;72.00
58519;DHT22;44310;48.106;12.008;2022-10-04T05:35:56;19.10;72.00
58519;DHT22;44310;48.106;12.008;2022-10-04T05:41:37;19.10;72.30
58519;DHT22;44310;48.106;12.008;2022-10-04T05:44:50;19.10;72.20
58519;DHT22;44310;48.106;12.008;2022-10-04T05:47:20;19.10;72.10
58519;DHT22;44310;48.106;12.008;2022-10-04T05:49:54;19.10;72.00
58519;DHT22;44310;48.106;12.008;2022-10-04T05:52:33;19.20;72.20
58519;DHT22;44310;48.106;12.008;2022-10-04T05:57:59;19.20;72.30
58519;DHT22;44310;48.106;12.008;2022-10-04T06:05:54;19.10;72.00
58519;DHT22;44310;48.106;12.008;2022-10-04T06:17:05;19.10;71.60
58519;DHT22;44310;48.106;12.008;2022-10-04T06:22:21;19.10;71.50
58519;DHT22;44310;48.106;12.008;2022-10-04T06:25:02;19.10;71.40
58519;DHT22;44310;48.106;12.008;2022-10-04T06:30:15;19.10;71.30
58519;DHT22;44310;48.106;12.008;2022-10-04T06:35:56;19.10;71.20
58519;DHT22;44310;48.106;12.008;2022-10-04T06:38:43;19.20;71.10
58519;DHT22;44310;48.106;12.008;2022-10-04T06:41:38;19.10;71.00
58519;DHT22;44310;48.106;12.008;2022-10-04T06:52:46;19.10;71.30
58519;DHT22;44310;48.106;12.008;2022-10-04T07:01:35;19.10;71.60
58519;DHT22;44310;48.106;12.008;2022-10-04T07:09:43;19.20;72.50
58519;DHT22;44310;48.106;12.008;2022-10-04T07:12:12;19.20;72.90
58519;DHT22;44310;48.106;12.008;2022-10-04T07:14:52;19.20;72.80
58519;DHT22;44310;48.106;12.008;2022-10-04T07:17:28;19.20;73.20
58519;DHT22;44310;48.106;12.008;2022-10-04T07:19:56;19.20;73.40
58519;DHT22;44310;48.106;12.008;2022-10-04T07:22:28;19.20;73.50
58519;DHT22;44310;48.106;12.008;2022-10-04T07:25:12;19.20;73.80
58519;DHT22;44310;48.106;12.008;2022-10-04T07:31:20;19.20;74.10
58519;DHT22;44310;48.106;12.008;2022-10-04T07:34:13;19.20;74.20
58519;DHT22;44310;48.106;12.008;2022-10-04T07:36:47;19.20;74.40
58519;DHT22;44310;48.106;12.008;2022-10-04T07:39:32;19.20;74.40
58519;DHT22;44310;48.106;12.008;2022-10-04T07:42:15;19.20;74.40
58519;DHT22;44310;48.106;12.008;2022-10-04T07:45:15;19.20;74.50
58519;DHT22;44310;48.106;12.008;2022-10-04T07:47:43;19.20;74.50
58519;DHT22;44310;48.106;12.008;2022-10-04T07:50:29;19.20;74.40
58519;DHT22;44310;48.106;12.008;2022-10-04T07:53:27;19.20;74.40
58519;DHT22;44310;48.106;12.008;2022-10-04T07:58:37;19.20;74.60
58519;DHT22;44310;48.106;12.008;2022-10-04T08:01:30;19.20;74.30
58519;DHT22;44310;48.106;12.008;2022-10-04T08:04:10;19.20;74.30
58519;DHT22;44310;48.106;12.008;2022-10-04T08:06:54;19.20;74.40
58519;DHT22;44310;48.106;12.008;2022-10-04T08:21:00;19.20;75.00
58519;DHT22;44310;48.106;12.008;2022-10-04T08:26:36;19.20;75.00
58519;DHT22;44310;48.106;12.008;2022-10-04T08:29:15;19.20;75.10
58519;DHT22;44310;48.106;12.008;2022-10-04T09:05:37;18.80;75.00
58519;DHT22;44310;48.106;12.008;2022-10-04T09:13:58;18.70;74.70
58519;DHT22;44310;48.106;12.008;2022-10-04T09:16:48;18.70;74.90
58519;DHT22;44310;48.106;12.008;2022-10-04T09:19:30;18.80;75.10
58519;DHT22;44310;48.106;12.008;2022-10-04T09:22:23;18.90;74.60
58519;DHT22;44310;48.106;12.008;2022-10-04T09:31:04;18.60;71.20
58519;DHT22;44310;48.106;12.008;2022-10-04T09:47:44;17.40;73.70
58519;DHT22;44310;48.106;12.008;2022-10-04T09:56:30;17.90;73.30
58519;DHT22;44310;48.106;12.008;2022-10-04T09:59:33;18.00;73.10
58519;DHT22;44310;48.106;12.008;2022-10-04T10:02:21;18.10;72.80
58519;DHT22;44310;48.106;12.008;2022-10-04T10:05:37;18.20;73.20
58519;DHT22;44310;48.106;12.008;2022-10-04T10:10:45;18.20;72.80
58519;DHT22;44310;48.106;12.008;2022-10-04T10:14:02;18.30;72.90
58519;DHT22;44310;48.106;12.008;2022-10-04T10:16:55;18.30;72.80
58519;DHT22;44310;48.106;12.008;2022-10-04T10:19:39;18.30;72.70
58519;DHT22;44310;48.106;12.008;2022-10-04T10:30:57;18.40;72.80
58519;DHT22;44310;48.106;12.008;2022-10-04T10:33:43;18.30;73.00
58519;DHT22;44310;48.106;12.008;2022-10-04T10:36:29;18.40;72.90
58519;DHT22;44310;48.106;12.008;2022-10-04T10:50:15;18.40;72.90
58519;DHT22;44310;48.106;12.008;2022-10-04T10:53:09;18.40;72.70
58519;DHT22;44310;48.106;12.008;2022-10-04T11:01:27;18.40;72.90
58519;DHT22;44310;48.106;12.008;2022-10-04T11:04:37;18.40;72.90
58519;DHT22;44310;48.106;12.008;2022-10-04T11:07:42;18.40;73.20
58519;DHT22;44310;48.106;12.008;2022-10-04T11:10:25;18.40;73.30
58519;DHT22;44310;48.106;12.008;2022-10-04T11:13:17;18.40;73.20
58519;DHT22;44310;48.106;12.008;2022-10-04T11:16:04;18.40;73.20
58519;DHT22;44310;48.106;12.008;2022-10-04T11:26:55;18.40;73.30
58519;DHT22;44310;48.106;12.008;2022-10-04T11:29:40;18.40;73.30
58519;DHT22;44310;48.106;12.008;2022-10-04T11:35:09;18.40;73.10
58519;DHT22;44310;48.106;12.008;2022-10-04T11:49:41;18.40;73.30
58519;DHT22;44310;48.106;12.008;2022-10-04T11:52:36;18.40;73.40
58519;DHT22;44310;48.106;12.008;2022-10-04T11:55:40;18.40;73.40
58519;DHT22;44310;48.106;12.008;2022-10-04T11:58:23;18.40;73.50
58519;DHT22;44310;48.106;12.008;2022-10-04T12:01:00;18.40;73.60
58519;DHT22;44310;48.106;12.008;2022-10-04T12:03:57;18.40;73.40
58519;DHT22;44310;48.106;12.008;2022-10-04T12:12:44;18.40;74.10
58519;DHT22;44310;48.106;12.008;2022-10-04T12:15:32;18.40;73.50
58519;DHT22;44310;48.106;12.008;2022-10-04T12:21:34;18.40;73.50
58519;DHT22;44310;48.106;12.008;2022-10-04T12:40:42;18.50;73.60
58519;DHT22;44310;48.106;12.008;2022-10-04T12:46:09;18.50;73.60
58519;DHT22;44310;48.106;12.008;2022-10-04T12:49:11;18.50;73.60
58519;DHT22;44310;48.106;12.008;2022-10-04T12:51:57;18.50;73.50
58519;DHT22;44310;48.106;12.008;2022-10-04T13:00:23;18.50;73.40
58519;DHT22;44310;48.106;12.008;2022-10-04T13:03:20;18.50;73.50
58519;DHT22;44310;48.106;12.008;2022-10-04T13:06:03;18.60;73.70
58519;DHT22;44310;48.106;12.008;2022-10-04T13:09:00;18.50;73.60
58519;DHT22;44310;48.106;12.008;2022-10-04T13:12:19;18.50;73.50
58519;DHT22;44310;48.106;12.008;2022-10-04T13:17:31;18.50;73.60
58519;DHT22;44310;48.106;12.008;2022-10-04T13:39:51;18.50;73.70
58519;DHT22;44310;48.106;12.008;2022-10-04T14:08:19;18.50;73.30
58519;DHT22;44310;48.106;12.008;2022-10-04T14:17:03;18.50;73.20
58519;DHT22;44310;48.106;12.008;2022-10-04T14:20:04;18.60;73.30
58519;DHT22;44310;48.106;12.008;2022-10-04T14:47:10;18.50;73.40
58519;DHT22;44310;48.106;12.008;2022-10-04T14:50:02;18.60;73.40
58519;DHT22;44310;48.106;12.008;2022-10-04T14:56:22;18.50;73.40
58519;DHT22;44310;48.106;12.008;2022-10-04T15:01:25;18.50;73.40
58519;DHT22;44310;48.106;12.008;2022-10-04T15:07:03;18.50;73.40
58519;DHT22;44310;48.106;12.008;2022-10-04T15:10:24;18.50;73.50
58519;DHT22;44310;48.106;12.008;2022-10-04T15:21:29;18.50;73.50
58519;DHT22;44310;48.106;12.008;2022-10-04T15:29:50;18.50;73.60
58519;DHT22;44310;48.106;12.008;2022-10-04T15:32:22;18.50;73.50
58519;DHT22;44310;48.106;12.008;2022-10-04T15:38:00;18.50;73.60
58519;DHT22;44310;48.106;12.008;2022-10-04T15:43:25;18.50;73.60
58519;DHT22;44310;48.106;12.008;2022-10-04T15:51:48;18.50;73.70
58519;DHT22;44310;48.106;12.008;2022-10-04T16:00:26;18.50;73.80
58519;DHT22;44310;48.106;12.008;2022-10-04T16:05:38;18.50;73.80
58519;DHT22;44310;48.106;12.008;2022-10-04T16:08:22;18.50;73.80
58519;DHT22;44310;48.106;12.008;2022-10-04T16:16:51;18.50;73.90
58519;DHT22;44310;48.106;12.008;2022-10-04T16:19:42;18.50;74.00
58519;DHT22;44310;48.106;12.008;2022-10-04T16:22:25;18.50;73.90
58519;DHT22;44310;48.106;12.008;2022-10-04T16:24:57;18.50;74.00
58519;DHT22;44310;48.106;12.008;2022-10-04T16:27:43;18.50;74.00
58519;DHT22;44310;48.106;12.008;2022-10-04T16:30:21;18.50;74.10
58519;DHT22;44310;48.106;12.008;2022-10-04T16:35:46;18.50;74.20
58519;DHT22;44310;48.106;12.008;2022-10-04T16:38:22;18.50;74.20
58519;DHT22;44310;48.106;12.008;2022-10-04T16:59:52;18.50;76.40
58519;DHT22;44310;48.106;12.008;2022-10-04T17:08:24;18.80;77.00
58519;DHT22;44310;48.106;12.008;2022-10-04T17:11:34;18.90;77.50
58519;DHT22;44310;48.106;12.008;2022-10-04T17:20:22;19.00;78.40
58519;DHT22;44310;48.106;12.008;2022-10-04T17:28:57;19.10;78.80
58519;DHT22;44310;48.106;12.008;2022-10-04T17:34:16;19.10;78.80
58519;DHT22;44310;48.106;12.008;2022-10-04T17:37:00;19.10;79.00
58519;DHT22;44310;48.106;12.008;2022-10-04T17:39:45;19.10;78.80
58519;DHT22;44310;48.106;12.008;2022-10-04T17:42:22;19.10;79.20
58519;DHT22;44310;48.106;12.008;2022-10-04T17:48:07;19.10;79.30
58519;DHT22;44310;48.106;12.008;2022-10-04T17:53:59;19.10;79.30
58519;DHT22;44310;48.106;12.008;2022-10-04T17:57:06;19.10;79.60
58519;DHT22;44310;48.106;12.008;2022-10-04T17:59:41;19.10;79.50
58519;DHT22;44310;48.106;12.008;2022-10-04T18:02:41;19.10;79.70
58519;DHT22;44310;48.106;12.008;2022-10-04T18:05:30;19.10;79.70
58519;DHT22;44310;48.106;12.008;2022-10-04T18:08:02;19.10;79.60
58519;DHT22;44310;48.106;12.008;2022-10-04T18:10:38;19.10;79.60
58519;DHT22;44310;48.106;12.008;2022-10-04T18:13:13;19.10;79.60
58519;DHT22;44310;48.106;12.008;2022-10-04T18:18:40;19.10;79.30
58519;DHT22;44310;48.106;12.008;2022-10-04T18:24:00;19.10;79.60
58519;DHT22;44310;48.106;12.008;2022-10-04T18:26:53;19.10;79.70
58519;DHT22;44310;48.106;12.008;2022-10-04T18:29:42;19.10;80.30
58519;DHT22;44310;48.106;12.008;2022-10-04T18:34:56;19.10;79.70
58519;DHT22;44310;48.106;12.008;2022-10-04T18:37:37;19.10;79.80
58519;DHT22;44310;48.106;12.008;2022-10-04T18:40:17;19.10;79.90
58519;DHT22;44310;48.106;12.008;2022-10-04T18:45:29;19.10;79.60
58519;DHT22;44310;48.106;12.008;2022-10-04T18:48:14;19.10;79.90
58519;DHT22;44310;48.106;12.008;2022-10-04T18:50:42;19.10;80.00
58519;DHT22;44310;48.106;12.008;2022-10-04T18:56:02;19.20;79.80
58519;DHT22;44310;48.106;12.008;2022-10-04T19:04:52;19.10;79.70
58519;DHT22;44310;48.106;12.008;2022-10-04T19:13:04;19.20;79.60
58519;DHT22;44310;48.106;12.008;2022-10-04T19:15:55;19.20;79.50
58519;DHT22;44310;48.106;12.008;2022-10-04T19:21:15;19.20;79.30
58519;DHT22;44310;48.106;12.008;2022-10-04T19:24:04;19.20;79.80
58519;DHT22;44310;48.106;12.008;2022-10-04T19:26:42;19.20;79.00
58519;DHT22;44310;48.106;12.008;2022-10-04T19:40:23;19.10;78.60
58519;DHT22;44310;48.106;12.008;2022-10-04T19:43:09;19.20;78.60
58519;DHT22;44310;48.106;12.008;2022-10-04T19:48:36;19.20;78.50
58519;DHT22;44310;48.106;12.008;2022-10-04T19:51:15;19.20;78.40
58519;DHT22;44310;48.106;12.008;2022-10-04T19:53:44;19.20;78.30
58519;DHT22;44310;48.106;12.008;2022-10-04T19:56:17;19.10;78.40
58519;DHT22;44310;48.106;12.008;2022-10-04T19:59:01;19.10;78.30
58519;DHT22;44310;48.106;12.008;2022-10-04T20:01:30;19.10;78.20
58519;DHT22;44310;48.106;12.008;2022-10-04T20:03:58;19.10;78.30
58519;DHT22;44310;48.106;12.008;2022-10-04T20:06:48;19.10;78.40
58519;DHT22;44310;48.106;12.008;2022-10-04T20:12:04;19.10;78.40
58519;DHT22;44310;48.106;12.008;2022-10-04T20:17:03;19.10;78.30
58519;DHT22;44310;48.106;12.008;2022-10-04T20:19:37;19.10;78.40
58519;DHT22;44310;48.106;12.008;2022-10-04T20:35:05;19.10;78.30
58519;DHT22;44310;48.106;12.008;2022-10-04T20:45:51;19.10;77.60
58519;DHT22;44310;48.106;12.008;2022-10-04T20:48:23;19.10;77.50
58519;DHT22;44310;48.106;12.008;2022-10-04T20:50:50;19.10;77.40
58519;DHT22;44310;48.106;12.008;2022-10-04T20:53:29;19.10;77.20
58519;DHT22;44310;48.106;12.008;2022-10-04T20:58:38;19.10;77.00
58519;DHT22;44310;48.106;12.008;2022-10-04T21:01:23;19.10;77.00
58519;DHT22;44310;48.106;12.008;2022-10-04T21:07:00;19.10;76.80
58519;DHT22;44310;48.106;12.008;2022-10-04T21:09:30;19.10;76.70
58519;DHT22;44310;48.106;12.008;2022-10-04T21:11:58;19.10;76.90
58519;DHT22;44310;48.106;12.008;2022-10-04T21:14:36;19.10;76.80
58519;DHT22;44310;48.106;12.008;2022-10-04T21:17:57;19.20;76.90
58519;DHT22;44310;48.106;12.008;2022-10-04T21:19:51;19.10;76.80
58519;DHT22;44310;48.106;12.008;2022-10-04T21:24:53;19.20;76.90
58519;DHT22;44310;48.106;12.008;2022-10-04T21:27:35;19.20;77.60
58519;DHT22;44310;48.106;12.008;2022-10-04T21:30:18;19.20;76.80
58519;DHT22;44310;48.106;12.008;2022-10-04T21:32:49;19.20;76.80
58519;DHT22;44310;48.106;12.008;2022-10-04T21:35:16;19.20;76.80
58519;DHT22;44310;48.106;12.008;2022-10-04T21:37:43;19.20;77.10
58519;DHT22;44310;48.106;12.008;2022-10-04T21:40:11;19.20;77.00
58519;DHT22;44310;48.106;12.008;2022-10-04T21:42:38;19.20;76.90
58519;DHT22;44310;48.106;12.008;2022-10-04T21:45:06;19.10;77.00
58519;DHT22;44310;48.106;12.008;2022-10-04T21:47:33;19.20;77.40
58519;DHT22;44310;48.106;12.008;2022-10-04T21:50:00;19.00;77.50
58519;DHT22;44310;48.106;12.008;2022-10-04T21:52:27;19.10;77.70
58519;DHT22;44310;48.106;12.008;2022-10-04T21:54:54;19.10;77.70
58519;DHT22;44310;48.106;12.008;2022-10-04T21:57:21;19.10;77.80
58519;DHT22;44310;48.106;12.008;2022-10-04T21:59:49;19.10;77.80
58519;DHT22;44310;48.106;12.008;2022-10-04T22:02:16;19.10;77.90
58519;DHT22;44310;48.106;12.008;2022-10-04T22:04:44;19.10;78.00
58519;DHT22;44310;48.106;12.008;2022-10-04T22:07:11;19.10;78.00
58519;DHT22;44310;48.106;12.008;2022-10-04T22:09:38;19.10;78.20
58519;DHT22;44310;48.106;12.008;2022-10-04T22:12:05;19.10;78.10
58519;DHT22;44310;48.106;12.008;2022-10-04T22:14:32;19.10;78.10
58519;DHT22;44310;48.106;12.008;2022-10-04T22:16:59;19.10;78.20
58519;DHT22;44310;48.106;12.008;2022-10-04T22:19:26;19.00;78.00
58519;DHT22;44310;48.106;12.008;2022-10-04T22:21:53;19.00;78.00
58519;DHT22;44310;48.106;12.008;2022-10-04T22:24:21;18.90;77.90
58519;DHT22;44310;48.106;12.008;2022-10-04T22:26:48;19.00;77.90
58519;DHT22;44310;48.106;12.008;2022-10-04T22:29:16;19.00;77.90
58519;DHT22;44310;48.106;12.008;2022-10-04T22:31:48;18.90;77.90
58519;DHT22;44310;48.106;12.008;2022-10-04T22:34:19;18.90;77.90
58519;DHT22;44310;48.106;12.008;2022-10-04T22:36:47;19.00;78.10
58519;DHT22;44310;48.106;12.008;2022-10-04T22:39:17;19.00;78.50
58519;DHT22;44310;48.106;12.008;2022-10-04T22:41:48;19.00;78.80
58519;DHT22;44310;48.106;12.008;2022-10-04T22:44:18;19.00;78.60
58519;DHT22;44310;48.106;12.008;2022-10-04T22:46:57;19.00;78.30
58519;DHT22;44310;48.106;12.008;2022-10-04T22:49:35;19.10;78.10
58519;DHT22;44310;48.106;12.008;2022-10-04T22:52:21;19.00;77.90
58519;DHT22;44310;48.106;12.008;2022-10-04T22:54:53;19.10;77.80
58519;DHT22;44310;48.106;12.008;2022-10-04T22:57:22;19.10;77.70
58519;DHT22;44310;48.106;12.008;2022-10-04T22:59:51;19.10;77.60
58519;DHT22;44310;48.106;12.008;2022-10-04T23:02:23;19.00;77.40
58519;DHT22;44310;48.106;12.008;2022-10-04T23:05:13;19.00;77.50
58519;DHT22;44310;48.106;12.008;2022-10-04T23:07:42;19.00;77.40
58519;DHT22;44310;48.106;12.008;2022-10-04T23:10:13;19.00;77.50
58519;DHT22;44310;48.106;12.008;2022-10-04T23:12:44;19.00;77.70
58519;DHT22;44310;48.106;12.008;2022-10-04T23:15:18;19.00;77.70
58519;DHT22;44310;48.106;12.008;2022-10-04T23:17:52;19.00;77.70
58519;DHT22;44310;48.106;12.008;2022-10-04T23:20:21;19.00;77.70
58519;DHT22;44310;48.106;12.008;2022-10-04T23:22:50;19.00;78.20
58519;DHT22;44310;48.106;12.008;2022-10-04T23:25:22;19.00;78.10
58519;DHT22;44310;48.106;12.008;2022-10-04T23:27:50;19.00;77.90
58519;DHT22;44310;48.106;12.008;2022-10-04T23:30:20;19.00;77.80
58519;DHT22;44310;48.106;12.008;2022-10-04T23:32:50;19.00;77.60
58519;DHT22;44310;48.106;12.008;2022-10-04T23:35:20;19.00;77.70
58519;DHT22;44310;48.106;12.008;2022-10-04T23:37:48;19.00;77.60
58519;DHT22;44310;48.106;12.008;2022-10-04T23:40:18;19.00;77.60
58519;DHT22;44310;48.106;12.008;2022-10-04T23:42:48;19.00;77.50
58519;DHT22;44310;48.106;12.008;2022-10-04T23:45:23;19.00;77.30
58519;DHT22;44310;48.106;12.008;2022-10-04T23:47:53;19.00;77.40
58519;DHT22;44310;48.106;12.008;2022-10-04T23:52:50;19.00;77.30
58519;DHT22;44310;48.106;12.008;2022-10-04T23:55:23;19.00;77.30
58519;DHT22;44310;48.106;12.008;2022-10-04T23:57:51;19.00;77.30
